createdAt,value
2018-12-12T00:01:46.644Z,63.72
2018-12-12T00:04:19.202Z,63.63
2018-12-12T00:06:52.258Z,63.67
2018-12-12T00:09:24.929Z,63.49
2018-12-12T00:11:57.462Z,63.50
2018-12-12T00:14:30.026Z,63.50
2018-12-12T00:17:02.645Z,63.63
2018-12-12T00:19:35.279Z,63.29
2018-12-12T00:22:07.827Z,63.50
2018-12-12T00:24:40.481Z,63.63
2018-12-12T00:27:13.002Z,63.57
2018-12-12T00:29:45.664Z,63.86
2018-12-12T00:32:18.219Z,63.78
2018-12-12T00:34:50.886Z,63.48
2018-12-12T00:37:23.419Z,63.48
2018-12-12T00:39:55.995Z,63.33
2018-12-12T00:42:28.538Z,63.35
2018-12-12T00:45:01.199Z,63.25
2018-12-12T00:47:33.716Z,63.20
2018-12-12T00:50:06.606Z,63.25
2018-12-12T00:52:39.152Z,63.39
2018-12-12T00:55:11.796Z,63.26
2018-12-12T00:57:44.671Z,63.30
2018-12-12T01:00:17.318Z,63.33
2018-12-12T01:02:49.844Z,63.55
2018-12-12T01:05:22.496Z,63.49
2018-12-12T01:07:55.039Z,63.56
2018-12-12T01:10:27.631Z,63.57
2018-12-12T01:13:00.173Z,63.71
2018-12-12T01:15:32.882Z,63.72
2018-12-12T01:18:05.421Z,63.50
2018-12-12T01:20:38.025Z,63.53
2018-12-12T01:23:10.738Z,63.57
2018-12-12T01:25:43.428Z,63.63
2018-12-12T01:28:15.964Z,63.77
2018-12-12T01:30:48.586Z,63.95
2018-12-12T01:33:21.135Z,63.84
2018-12-12T01:35:53.736Z,64.13
2018-12-12T01:38:26.278Z,64.37
2018-12-12T01:40:58.940Z,64.22
2018-12-12T01:43:31.463Z,64.41
2018-12-12T01:46:04.058Z,64.45
2018-12-12T01:48:36.595Z,64.37
2018-12-12T01:51:09.246Z,64.47
2018-12-12T01:53:41.800Z,64.33
2018-12-12T01:56:14.417Z,64.34
2018-12-12T01:58:46.948Z,64.27
2018-12-12T02:01:19.596Z,64.39
2018-12-12T02:03:52.215Z,64.17
2018-12-12T02:06:24.839Z,64.34
2018-12-12T02:08:57.370Z,64.39
2018-12-12T02:11:30.182Z,64.36
2018-12-12T02:14:02.712Z,64.27
2018-12-12T02:16:35.277Z,64.38
2018-12-12T02:19:07.947Z,64.21
2018-12-12T02:21:40.500Z,64.48
2018-12-12T02:24:13.042Z,64.11
2018-12-12T02:26:45.759Z,64.20
2018-12-12T02:29:18.296Z,64.08
2018-12-12T02:31:50.866Z,64.33
2018-12-12T02:34:23.398Z,64.05
2018-12-12T02:36:55.976Z,63.96
2018-12-12T02:39:28.521Z,64.17
2018-12-12T02:42:01.080Z,64.16
2018-12-12T02:44:33.667Z,64.26
2018-12-12T02:47:06.350Z,64.03
2018-12-12T02:49:38.879Z,63.86
2018-12-12T02:52:11.464Z,63.90
2018-12-12T02:54:44.012Z,64.20
2018-12-12T02:57:16.578Z,64.19
2018-12-12T02:59:49.127Z,64.14
2018-12-12T03:02:21.721Z,64.15
2018-12-12T03:04:54.392Z,64.25
2018-12-12T03:07:27.015Z,64.17
2018-12-12T03:09:59.553Z,63.93
2018-12-12T03:12:32.129Z,63.92
2018-12-12T03:15:05.932Z,64.16
2018-12-12T03:17:38.600Z,64.43
2018-12-12T03:20:11.145Z,64.30
2018-12-12T03:22:43.718Z,64.23
2018-12-12T03:25:16.236Z,64.46
2018-12-12T03:27:48.894Z,64.53
2018-12-12T03:30:21.433Z,64.30
2018-12-12T03:32:54.017Z,64.62
2018-12-12T03:35:26.625Z,64.75
2018-12-12T03:37:59.229Z,64.81
2018-12-12T03:40:32.061Z,64.85
2018-12-12T03:43:04.945Z,64.79
2018-12-12T03:45:37.531Z,64.72
2018-12-12T03:48:10.123Z,64.59
2018-12-12T03:50:42.664Z,64.72
2018-12-12T03:53:15.318Z,64.76
2018-12-12T03:55:47.848Z,64.55
2018-12-12T03:58:20.420Z,64.76
2018-12-12T04:00:52.978Z,64.66
2018-12-12T04:03:25.606Z,64.66
2018-12-12T04:05:58.309Z,64.60
2018-12-12T04:08:30.868Z,64.67
2018-12-12T04:11:03.436Z,64.70
2018-12-12T04:13:36.006Z,64.48
2018-12-12T04:16:08.640Z,64.45
2018-12-12T04:18:41.359Z,64.49
2018-12-12T04:21:13.949Z,64.44
2018-12-12T04:23:46.575Z,64.22
2018-12-12T04:26:20.120Z,64.36
2018-12-12T04:28:52.782Z,64.28
2018-12-12T04:31:25.333Z,64.33
2018-12-12T04:33:57.962Z,64.32
2018-12-12T04:36:30.537Z,64.18
2018-12-12T04:39:04.657Z,64.33
2018-12-12T04:41:37.503Z,64.84
2018-12-12T04:44:10.151Z,64.14
2018-12-12T04:46:42.854Z,64.49
2018-12-12T04:49:15.727Z,64.09
2018-12-12T04:51:48.391Z,64.11
2018-12-12T04:54:21.029Z,64.06
2018-12-12T04:56:53.593Z,64.27
2018-12-12T04:59:26.316Z,64.27
2018-12-12T05:01:58.872Z,64.32
2018-12-12T05:04:31.423Z,64.10
2018-12-12T05:07:03.963Z,64.13
2018-12-12T05:09:36.613Z,64.23
2018-12-12T05:12:09.130Z,64.29
2018-12-12T05:14:41.805Z,64.52
2018-12-12T05:17:14.347Z,64.41
2018-12-12T05:19:46.923Z,64.34
2018-12-12T05:22:19.469Z,64.46
2018-12-12T05:24:52.060Z,64.46
2018-12-12T05:27:24.621Z,64.58
2018-12-12T05:29:57.184Z,64.44
2018-12-12T05:32:29.720Z,64.36
2018-12-12T05:35:02.373Z,64.10
2018-12-12T05:37:34.954Z,64.34
2018-12-12T05:40:08.085Z,64.47
2018-12-12T05:42:40.769Z,64.15
2018-12-12T05:45:14.222Z,64.40
2018-12-12T05:47:46.767Z,64.05
2018-12-12T05:50:19.654Z,64.18
2018-12-12T05:52:52.178Z,64.09
2018-12-12T05:55:24.835Z,64.05
2018-12-12T05:57:57.433Z,64.05
2018-12-12T06:00:29.990Z,64.07
2018-12-12T06:03:02.515Z,64.21
2018-12-12T06:05:35.336Z,63.97
2018-12-12T06:08:07.883Z,64.04
2018-12-12T06:10:40.535Z,63.98
2018-12-12T06:13:13.117Z,64.18
2018-12-12T06:15:45.713Z,64.09
2018-12-12T06:18:18.265Z,64.15
2018-12-12T06:20:50.910Z,64.08
2018-12-12T06:23:23.432Z,63.98
2018-12-12T06:25:56.006Z,63.97
2018-12-12T06:28:29.011Z,63.97
2018-12-12T06:31:01.754Z,63.87
2018-12-12T06:33:34.318Z,63.95
2018-12-12T06:36:06.885Z,64.04
2018-12-12T06:38:39.413Z,64.30
2018-12-12T06:41:12.050Z,64.43
2018-12-12T06:43:44.608Z,64.45
2018-12-12T06:46:17.262Z,64.45
2018-12-12T06:48:49.794Z,64.31
2018-12-12T06:51:22.447Z,64.22
2018-12-12T06:53:55.021Z,64.29
2018-12-12T06:56:27.620Z,63.98
2018-12-12T06:59:00.163Z,64.08
2018-12-12T07:01:32.828Z,64.51
2018-12-12T07:04:05.360Z,64.12
2018-12-12T07:06:38.091Z,64.39
2018-12-12T07:09:10.695Z,64.35
2018-12-12T07:11:43.256Z,64.24
2018-12-12T07:14:15.790Z,64.07
2018-12-12T07:16:48.355Z,64.21
2018-12-12T07:19:20.909Z,64.12
2018-12-12T07:21:54.335Z,64.10
2018-12-12T07:24:26.895Z,64.26
2018-12-12T07:26:59.473Z,64.16
2018-12-12T07:29:32.027Z,64.26
2018-12-12T07:32:04.744Z,64.60
2018-12-12T07:34:37.284Z,64.51
2018-12-12T07:37:09.974Z,64.42
2018-12-12T07:39:42.553Z,64.47
2018-12-12T07:42:15.151Z,64.48
2018-12-12T07:44:47.742Z,64.34
2018-12-12T07:47:20.392Z,64.63
2018-12-12T07:49:53.173Z,64.58
2018-12-12T07:52:25.735Z,64.77
2018-12-12T07:54:58.303Z,64.56
2018-12-12T07:57:30.864Z,64.36
2018-12-12T08:00:04.667Z,64.34
2018-12-12T08:02:37.243Z,64.58
2018-12-12T08:05:09.912Z,64.23
2018-12-12T08:07:42.472Z,64.41
2018-12-12T08:10:15.062Z,64.27
2018-12-12T08:12:47.708Z,64.38
2018-12-12T08:15:20.249Z,64.47
2018-12-12T08:17:52.824Z,64.49
2018-12-12T08:20:25.373Z,64.57
2018-12-12T08:22:58.705Z,64.70
2018-12-12T08:25:31.588Z,64.39
2018-12-12T08:28:04.151Z,64.67
2018-12-12T08:30:36.705Z,64.54
2018-12-12T08:33:11.299Z,64.49
2018-12-12T08:35:43.861Z,64.49
2018-12-12T08:38:16.512Z,64.54
2018-12-12T08:40:49.071Z,64.50
2018-12-12T08:43:21.757Z,64.51
2018-12-12T08:45:54.285Z,64.56
2018-12-12T08:48:26.848Z,64.75
2018-12-12T08:50:59.397Z,64.61
2018-12-12T08:53:32.162Z,64.31
2018-12-12T08:56:04.690Z,64.30
2018-12-12T08:58:37.252Z,64.09
2018-12-12T09:01:09.840Z,64.35
2018-12-12T09:03:42.436Z,64.49
2018-12-12T09:06:15.049Z,64.45
2018-12-12T09:08:47.637Z,64.34
2018-12-12T09:11:20.171Z,64.28
2018-12-12T09:13:53.000Z,64.31
2018-12-12T09:16:25.633Z,64.25
2018-12-12T09:18:58.263Z,64.26
2018-12-12T09:21:30.816Z,64.34
2018-12-12T09:24:03.633Z,64.24
2018-12-12T09:26:36.306Z,64.27
2018-12-12T09:29:08.908Z,64.24
2018-12-12T09:31:41.448Z,64.06
2018-12-12T09:34:14.376Z,63.74
2018-12-12T09:36:46.922Z,63.76
2018-12-12T09:39:19.513Z,64.02
2018-12-12T09:41:52.055Z,63.74
2018-12-12T09:44:24.795Z,63.62
2018-12-12T09:46:58.574Z,63.46
2018-12-12T09:49:31.830Z,63.58
2018-12-12T09:52:06.885Z,63.40
2018-12-12T09:54:40.226Z,63.47
2018-12-12T09:57:14.539Z,63.41
2018-12-12T09:59:47.932Z,63.23
2018-12-12T10:02:20.985Z,63.34
2018-12-12T10:04:54.384Z,63.09
2018-12-12T10:07:27.475Z,63.22
2018-12-12T10:10:02.053Z,63.07
2018-12-12T10:12:35.152Z,63.16
2018-12-12T10:15:08.407Z,63.36
2018-12-12T10:17:41.444Z,63.37
2018-12-12T10:20:14.531Z,63.44
2018-12-12T10:22:47.534Z,63.09
2018-12-12T10:25:20.292Z,62.40
2018-12-12T10:27:52.849Z,63.16
2018-12-12T10:30:25.406Z,63.20
2018-12-12T10:32:57.950Z,63.02
2018-12-12T10:35:30.522Z,62.67
2018-12-12T10:38:03.068Z,62.75
2018-12-12T10:40:35.676Z,62.54
2018-12-12T10:43:08.217Z,63.03
2018-12-12T10:45:40.874Z,62.88
2018-12-12T10:48:13.420Z,63.10
2018-12-12T10:50:46.064Z,63.28
2018-12-12T10:53:18.612Z,63.32
2018-12-12T10:55:51.187Z,63.31
2018-12-12T10:58:23.722Z,63.27
2018-12-12T11:01:02.059Z,63.04
2018-12-12T11:03:36.668Z,62.61
2018-12-12T11:06:09.274Z,62.29
2018-12-12T11:08:41.913Z,62.50
2018-12-12T11:11:14.504Z,62.30
2018-12-12T11:13:47.061Z,62.45
2018-12-12T11:16:19.627Z,62.40
2018-12-12T11:18:52.176Z,62.34
2018-12-12T11:21:24.738Z,62.41
2018-12-12T11:23:57.462Z,62.31
2018-12-12T11:26:30.317Z,62.24
2018-12-12T11:29:02.878Z,62.19
2018-12-12T11:31:35.841Z,61.74
2018-12-12T11:34:08.391Z,61.81
2018-12-12T11:36:40.965Z,61.56
2018-12-12T11:39:13.506Z,61.35
2018-12-12T11:41:46.137Z,60.91
2018-12-12T11:44:18.697Z,61.31
2018-12-12T11:46:51.278Z,61.17
2018-12-12T11:49:23.811Z,61.56
2018-12-12T11:51:56.408Z,61.51
2018-12-12T11:54:29.124Z,61.04
2018-12-12T11:57:02.019Z,61.04
2018-12-12T11:59:34.771Z,61.35
2018-12-12T12:02:07.352Z,61.44
2018-12-12T12:04:39.887Z,61.25
2018-12-12T12:07:12.545Z,61.34
2018-12-12T12:09:45.149Z,61.38
2018-12-12T12:12:17.912Z,61.21
2018-12-12T12:14:50.582Z,60.18
2018-12-12T12:17:23.242Z,59.99
2018-12-12T12:19:55.780Z,60.13
2018-12-12T12:22:28.484Z,60.41
2018-12-12T12:25:01.018Z,60.55
2018-12-12T12:27:33.580Z,60.38
2018-12-12T12:30:07.020Z,60.16
2018-12-12T12:32:39.655Z,60.15
2018-12-12T12:35:12.352Z,60.15
2018-12-12T12:37:45.057Z,60.70
2018-12-12T12:40:17.599Z,60.48
2018-12-12T12:42:50.263Z,60.51
2018-12-12T12:45:22.768Z,60.45
2018-12-12T12:47:55.562Z,60.10
2018-12-12T12:50:28.139Z,60.00
2018-12-12T12:53:01.074Z,60.37
2018-12-12T12:55:33.606Z,59.02
2018-12-12T12:58:06.182Z,60.39
2018-12-12T13:00:38.865Z,60.36
2018-12-12T13:03:11.494Z,60.47
2018-12-12T13:05:44.096Z,60.42
2018-12-12T13:08:16.757Z,60.60
2018-12-12T13:10:49.433Z,60.64
2018-12-12T13:13:22.193Z,60.00
2018-12-12T13:15:54.972Z,60.52
2018-12-12T13:18:27.710Z,60.41
2018-12-12T13:21:00.247Z,60.50
2018-12-12T13:23:32.821Z,59.94
2018-12-12T13:26:05.430Z,60.49
2018-12-12T13:28:38.161Z,60.77
2018-12-12T13:31:10.772Z,60.95
2018-12-12T13:33:43.628Z,60.16
2018-12-12T13:36:16.227Z,60.53
2018-12-12T13:38:48.806Z,59.37
2018-12-12T13:41:21.330Z,59.91
2018-12-12T13:43:54.171Z,59.86
2018-12-12T13:46:26.778Z,60.22
2018-12-12T13:48:59.475Z,60.01
2018-12-12T13:51:32.224Z,60.01
2018-12-12T13:54:05.053Z,60.47
2018-12-12T13:56:37.719Z,60.61
2018-12-12T13:59:10.432Z,60.64
2018-12-12T14:01:43.231Z,60.71
2018-12-12T14:04:15.844Z,60.68
2018-12-12T14:06:48.839Z,60.69
2018-12-12T14:09:21.452Z,60.90
2018-12-12T14:11:54.015Z,61.23
2018-12-12T14:14:26.568Z,61.16
2018-12-12T14:16:59.174Z,61.17
2018-12-12T14:19:31.731Z,60.99
2018-12-12T14:22:04.537Z,61.35
2018-12-12T14:24:37.078Z,61.29
2018-12-12T14:27:09.723Z,61.41
2018-12-12T14:29:43.264Z,61.29
2018-12-12T14:32:15.826Z,61.29
2018-12-12T14:34:48.436Z,61.24
2018-12-12T14:37:21.024Z,61.10
2018-12-12T14:39:53.647Z,61.32
2018-12-12T14:42:26.339Z,61.00
2018-12-12T14:44:58.912Z,60.49
2018-12-12T14:47:31.510Z,59.47
2018-12-12T14:50:04.564Z,59.74
2018-12-12T14:52:37.218Z,59.76
2018-12-12T14:55:09.796Z,59.95
2018-12-12T14:57:42.497Z,60.27
2018-12-12T15:00:15.327Z,60.51
2018-12-12T15:02:47.951Z,60.58
2018-12-12T15:05:20.498Z,60.41
2018-12-12T15:07:53.202Z,60.23
2018-12-12T15:10:25.908Z,60.57
2018-12-12T15:12:58.711Z,60.72
2018-12-12T15:15:31.319Z,60.65
2018-12-12T15:18:04.225Z,60.70
2018-12-12T15:20:36.770Z,60.97
2018-12-12T15:23:09.368Z,61.00
2018-12-12T15:25:41.902Z,61.33
2018-12-12T15:28:14.487Z,61.24
2018-12-12T15:30:47.053Z,61.04
2018-12-12T15:33:19.789Z,61.03
2018-12-12T15:35:52.348Z,61.19
2018-12-12T15:38:25.023Z,61.21
2018-12-12T15:40:57.622Z,61.24
2018-12-12T15:43:30.284Z,61.45
2018-12-12T15:46:02.857Z,61.43
2018-12-12T15:48:35.468Z,61.34
2018-12-12T15:51:08.014Z,61.39
2018-12-12T15:53:40.603Z,61.45
2018-12-12T15:56:13.169Z,61.36
2018-12-12T15:58:45.839Z,61.32
2018-12-12T16:01:18.473Z,61.32
2018-12-12T16:03:51.563Z,61.13
2018-12-12T16:06:24.144Z,60.75
2018-12-12T16:08:56.976Z,61.00
2018-12-12T16:11:29.519Z,60.77
2018-12-12T16:14:02.307Z,60.86
2018-12-12T16:16:34.888Z,60.87
2018-12-12T16:19:09.766Z,60.98
2018-12-12T16:21:42.328Z,60.70
2018-12-12T16:24:15.077Z,60.77
2018-12-12T16:26:47.642Z,60.59
2018-12-12T16:29:20.368Z,60.70
2018-12-12T16:31:54.581Z,60.80
2018-12-12T16:34:30.147Z,60.87
2018-12-12T16:37:02.699Z,60.53
2018-12-12T16:39:35.261Z,60.47
2018-12-12T16:42:07.803Z,60.27
2018-12-12T16:44:40.430Z,60.34
2018-12-12T16:47:12.974Z,60.24
2018-12-12T16:49:45.650Z,60.43
2018-12-12T16:52:18.216Z,60.55
2018-12-12T16:54:50.772Z,60.29
2018-12-12T16:57:23.303Z,60.51
2018-12-12T16:59:55.986Z,60.49
2018-12-12T17:02:28.698Z,60.28
2018-12-12T17:05:02.482Z,60.27
2018-12-12T17:07:35.303Z,60.42
2018-12-12T17:10:10.820Z,60.21
2018-12-12T17:12:42.625Z,60.46
2018-12-12T17:15:15.278Z,60.77
2018-12-12T17:17:47.817Z,60.68
2018-12-12T17:20:20.463Z,60.61
2018-12-12T17:22:53.077Z,60.87
2018-12-12T17:25:25.657Z,60.88
2018-12-12T17:27:58.185Z,60.86
2018-12-12T17:30:30.799Z,60.85
2018-12-12T17:33:03.331Z,60.94
2018-12-12T17:35:35.965Z,60.98
2018-12-12T17:38:08.505Z,60.83
2018-12-12T17:40:42.646Z,60.99
2018-12-12T17:43:15.193Z,61.06
2018-12-12T17:45:47.756Z,61.05
2018-12-12T17:48:20.341Z,61.18
2018-12-12T17:50:53.005Z,61.31
2018-12-12T17:53:25.580Z,61.02
2018-12-12T17:55:58.151Z,61.16
2018-12-12T17:58:30.704Z,61.45
2018-12-12T18:01:03.408Z,61.42
2018-12-12T18:03:35.952Z,61.46
2018-12-12T18:06:08.501Z,61.49
2018-12-12T18:08:41.039Z,61.44
2018-12-12T18:11:13.613Z,61.37
2018-12-12T18:13:46.145Z,61.48
2018-12-12T18:16:18.722Z,61.60
2018-12-12T18:18:51.303Z,61.55
2018-12-12T18:21:25.106Z,61.46
2018-12-12T18:23:57.848Z,61.42
2018-12-12T18:26:30.408Z,61.33
2018-12-12T18:29:02.942Z,61.63
2018-12-12T18:31:35.506Z,61.99
2018-12-12T18:34:08.040Z,61.01
2018-12-12T18:36:40.688Z,62.00
2018-12-12T18:39:13.235Z,61.99
2018-12-12T18:41:45.909Z,62.17
2018-12-12T18:44:18.446Z,62.02
2018-12-12T18:46:51.024Z,62.32
2018-12-12T18:49:23.575Z,62.38
2018-12-12T18:51:56.120Z,61.81
2018-12-12T18:54:28.705Z,61.99
2018-12-12T18:57:01.327Z,61.81
2018-12-12T18:59:33.853Z,61.70
2018-12-12T19:02:06.504Z,62.14
2018-12-12T19:04:39.035Z,62.06
2018-12-12T19:07:11.609Z,62.08
2018-12-12T19:09:44.136Z,61.93
2018-12-12T19:12:16.704Z,61.97
2018-12-12T19:14:54.844Z,61.75
2018-12-12T19:17:27.480Z,62.00
2018-12-12T19:20:00.012Z,62.09
2018-12-12T19:22:32.586Z,62.07
2018-12-12T19:25:05.249Z,62.34
2018-12-12T19:27:37.869Z,62.34
2018-12-12T19:30:10.400Z,62.53
2018-12-12T19:32:42.977Z,62.65
2018-12-12T19:35:15.539Z,62.54
2018-12-12T19:37:48.105Z,62.67
2018-12-12T19:40:20.627Z,61.82
2018-12-12T19:42:53.207Z,62.84
2018-12-12T19:45:25.745Z,62.57
2018-12-12T19:47:58.289Z,62.70
2018-12-12T19:50:30.811Z,62.65
2018-12-12T19:53:03.485Z,62.83
2018-12-12T19:55:36.073Z,62.60
2018-12-12T19:58:08.722Z,62.42
2018-12-12T20:00:41.257Z,62.77
2018-12-12T20:03:13.845Z,62.92
2018-12-12T20:05:46.398Z,62.91
2018-12-12T20:08:18.992Z,62.84
2018-12-12T20:10:51.521Z,62.84
2018-12-12T20:13:24.266Z,62.82
2018-12-12T20:15:56.795Z,63.17
2018-12-12T20:18:29.440Z,63.18
2018-12-12T20:21:01.992Z,62.99
2018-12-12T20:23:34.635Z,63.00
2018-12-12T20:26:07.171Z,62.89
2018-12-12T20:28:39.726Z,63.17
2018-12-12T20:31:12.260Z,62.91
2018-12-12T20:33:44.813Z,63.32
2018-12-12T20:36:17.335Z,62.99
2018-12-12T20:38:49.991Z,63.07
2018-12-12T20:41:22.585Z,63.18
2018-12-12T20:43:55.142Z,62.98
2018-12-12T20:46:27.688Z,62.79
2018-12-12T20:49:00.553Z,63.03
2018-12-12T20:51:33.098Z,63.37
2018-12-12T20:54:05.671Z,63.36
2018-12-12T20:56:38.215Z,63.40
2018-12-12T20:59:10.762Z,63.08
2018-12-12T21:01:43.355Z,63.08
2018-12-12T21:04:15.956Z,63.47
2018-12-12T21:06:48.482Z,63.42
2018-12-12T21:09:21.062Z,63.14
2018-12-12T21:11:53.665Z,63.60
2018-12-12T21:14:26.317Z,64.04
2018-12-12T21:16:58.843Z,63.14
2018-12-12T21:19:31.504Z,63.36
2018-12-12T21:22:04.045Z,63.23
2018-12-12T21:24:36.603Z,63.37
2018-12-12T21:27:09.158Z,63.34
2018-12-12T21:29:41.729Z,63.63
2018-12-12T21:32:14.271Z,63.45
2018-12-12T21:34:46.918Z,63.36
2018-12-12T21:37:19.450Z,63.58
2018-12-12T21:39:52.084Z,63.51
2018-12-12T21:42:25.509Z,63.50
2018-12-12T21:44:58.064Z,63.32
2018-12-12T21:47:30.596Z,63.37
2018-12-12T21:50:03.814Z,63.53
2018-12-12T21:52:36.348Z,63.49
2018-12-12T21:55:09.022Z,63.05
2018-12-12T21:57:41.551Z,62.90
2018-12-12T22:00:14.277Z,63.16
2018-12-12T22:02:46.805Z,63.28
2018-12-12T22:05:19.374Z,63.26
2018-12-12T22:07:51.908Z,63.26
2018-12-12T22:10:24.462Z,63.34
2018-12-12T22:12:56.992Z,63.12
2018-12-12T22:15:29.592Z,63.11
2018-12-12T22:18:02.128Z,63.23
2018-12-12T22:20:34.684Z,63.23
2018-12-12T22:23:07.246Z,63.12
2018-12-12T22:25:39.806Z,62.92
2018-12-12T22:28:12.339Z,63.28
2018-12-12T22:30:44.904Z,62.83
2018-12-12T22:33:17.421Z,63.25
2018-12-12T22:35:49.978Z,63.18
2018-12-12T22:38:22.660Z,63.52
2018-12-12T22:40:55.281Z,63.25
2018-12-12T22:43:27.812Z,63.32
2018-12-12T22:46:00.619Z,63.40
2018-12-12T22:48:33.153Z,63.38
2018-12-12T22:51:05.723Z,63.35
2018-12-12T22:53:38.279Z,62.96
2018-12-12T22:56:10.867Z,63.16
2018-12-12T22:58:43.396Z,63.44
2018-12-12T23:01:23.659Z,63.33
2018-12-12T23:03:56.304Z,63.53
2018-12-12T23:06:28.874Z,63.57
2018-12-12T23:09:01.406Z,63.29
2018-12-12T23:11:33.983Z,63.09
2018-12-12T23:14:06.617Z,63.48
2018-12-12T23:16:39.187Z,63.37
2018-12-12T23:19:11.744Z,63.19
2018-12-12T23:26:35.571Z,62.91
2018-12-12T23:29:08.120Z,63.33
2018-12-12T23:31:40.756Z,63.34
2018-12-12T23:34:13.332Z,63.41
2018-12-12T23:36:45.872Z,63.51
2018-12-12T23:39:18.422Z,63.31
2018-12-12T23:41:50.947Z,63.71
2018-12-12T23:44:23.497Z,63.54
2018-12-12T23:46:56.031Z,63.16
2018-12-12T23:49:28.671Z,63.59
2018-12-12T23:52:01.219Z,63.36
2018-12-12T23:54:33.866Z,63.76
2018-12-12T23:57:06.423Z,63.48
2018-12-12T23:59:39.405Z,63.06
